createdAt,value
2022-10-09T00:01:12.997Z,2.30
2022-10-09T00:03:43.061Z,2.45
2022-10-09T00:06:13.993Z,1.75
2022-10-09T00:08:43.651Z,2.53
2022-10-09T00:11:15.493Z,1.95
2022-10-09T00:13:43.995Z,1.90
2022-10-09T00:16:14.172Z,2.33
2022-10-09T00:18:42.977Z,2.55
2022-10-09T00:21:19.789Z,1.83
2022-10-09T00:23:48.228Z,1.70
2022-10-09T00:26:17.735Z,2.00
2022-10-09T00:28:46.432Z,1.90
2022-10-09T00:31:15.003Z,2.17
2022-10-09T00:33:46.178Z,2.05
2022-10-09T00:36:16.205Z,2.00
2022-10-09T00:38:44.734Z,1.70
2022-10-09T00:41:15.690Z,2.17
2022-10-09T00:43:47.903Z,1.98
2022-10-09T00:46:28.004Z,2.50
2022-10-09T00:49:03.488Z,1.60
2022-10-09T00:51:33.022Z,1.77
2022-10-09T00:54:02.593Z,1.95
2022-10-09T00:56:30.632Z,2.42
2022-10-09T00:59:01.178Z,1.60
2022-10-09T01:01:29.043Z,1.67
2022-10-09T01:03:57.063Z,2.53
2022-10-09T01:06:33.756Z,1.83
2022-10-09T01:09:06.561Z,2.00
2022-10-09T01:11:43.135Z,2.53
2022-10-09T01:14:21.223Z,1.73
2022-10-09T01:16:55.599Z,2.28
2022-10-09T01:19:36.677Z,1.98
2022-10-09T01:22:14.913Z,1.63
2022-10-09T01:24:46.744Z,2.42
2022-10-09T01:27:18.509Z,1.83
2022-10-09T01:29:49.351Z,2.10
2022-10-09T01:32:21.893Z,2.00
2022-10-09T01:34:52.359Z,2.22
2022-10-09T01:37:22.765Z,1.63
2022-10-09T01:39:51.653Z,2.08
2022-10-09T01:42:23.874Z,2.03
2022-10-09T01:44:51.696Z,2.40
2022-10-09T01:47:21.278Z,2.30
2022-10-09T01:49:55.214Z,2.65
2022-10-09T01:52:31.738Z,2.00
2022-10-09T01:55:07.831Z,2.30
2022-10-09T01:57:44.762Z,2.35
2022-10-09T02:00:14.234Z,2.03
2022-10-09T02:02:44.232Z,1.95
2022-10-09T02:05:14.559Z,2.03
2022-10-09T02:07:42.907Z,2.13
2022-10-09T02:10:11.709Z,2.53
2022-10-09T02:12:46.627Z,2.42
2022-10-09T02:15:15.630Z,1.90
2022-10-09T02:17:48.338Z,1.83
2022-10-09T02:20:22.784Z,1.85
2022-10-09T02:22:51.308Z,2.47
2022-10-09T02:25:20.225Z,2.08
2022-10-09T02:27:49.583Z,2.03
2022-10-09T02:30:18.737Z,1.95
2022-10-09T02:32:46.818Z,2.00
2022-10-09T02:35:14.752Z,1.50
2022-10-09T02:37:43.003Z,2.20
2022-10-09T02:40:11.929Z,2.00
2022-10-09T02:42:39.739Z,1.80
2022-10-09T02:45:10.681Z,1.95
2022-10-09T02:47:38.471Z,1.80
2022-10-09T02:50:07.372Z,2.13
2022-10-09T02:52:35.373Z,1.83
2022-10-09T02:55:03.142Z,2.45
2022-10-09T02:57:30.911Z,1.38
2022-10-09T02:59:58.936Z,2.15
2022-10-09T03:02:28.099Z,1.50
2022-10-09T03:04:55.933Z,2.58
2022-10-09T03:07:23.860Z,1.55
2022-10-09T03:09:51.657Z,1.85
2022-10-09T03:12:21.290Z,1.40
2022-10-09T03:14:49.246Z,1.80
2022-10-09T03:17:17.036Z,1.65
2022-10-09T03:19:46.186Z,2.15
2022-10-09T03:22:14.258Z,2.10
2022-10-09T03:24:42.067Z,1.88
2022-10-09T03:27:09.819Z,2.00
2022-10-09T03:29:37.718Z,1.50
2022-10-09T03:32:05.524Z,1.83
2022-10-09T03:34:33.338Z,1.73
2022-10-09T03:37:02.570Z,1.85
2022-10-09T03:39:30.370Z,2.00
2022-10-09T03:41:58.134Z,1.67
2022-10-09T03:44:25.997Z,1.52
2022-10-09T03:46:53.838Z,1.80
2022-10-09T03:49:21.610Z,1.65
2022-10-09T03:51:49.405Z,1.58
2022-10-09T03:54:18.531Z,2.30
2022-10-09T03:56:46.357Z,1.85
2022-10-09T03:59:14.142Z,3.00
2022-10-09T04:01:41.952Z,1.80
2022-10-09T04:04:09.800Z,2.15
2022-10-09T04:06:37.756Z,2.67
2022-10-09T04:09:05.851Z,2.25
2022-10-09T04:11:35.151Z,2.38
2022-10-09T04:14:04.042Z,2.28
2022-10-09T04:16:31.827Z,2.25
2022-10-09T04:18:59.955Z,2.40
2022-10-09T04:21:27.886Z,2.60
2022-10-09T04:23:55.623Z,1.95
2022-10-09T04:26:23.415Z,2.92
2022-10-09T04:28:52.538Z,2.50
2022-10-09T04:31:20.314Z,2.78
2022-10-09T04:33:48.136Z,2.58
2022-10-09T04:36:16.234Z,2.50
2022-10-09T04:38:44.019Z,2.20
2022-10-09T04:41:11.810Z,2.40
2022-10-09T04:43:39.802Z,2.08
2022-10-09T04:46:12.091Z,1.92
2022-10-09T04:48:40.597Z,2.83
2022-10-09T04:51:09.112Z,2.20
2022-10-09T04:53:38.172Z,2.75
2022-10-09T04:56:08.506Z,3.10
2022-10-09T04:58:37.179Z,2.25
2022-10-09T05:01:09.231Z,2.67
2022-10-09T05:03:37.604Z,2.80
2022-10-09T05:06:07.197Z,2.13
2022-10-09T05:08:35.858Z,2.13
2022-10-09T05:11:04.744Z,2.63
2022-10-09T05:13:34.964Z,2.67
2022-10-09T05:16:03.733Z,2.47
2022-10-09T05:18:32.871Z,2.33
2022-10-09T05:21:00.805Z,2.78
2022-10-09T05:23:28.773Z,2.42
2022-10-09T05:25:57.460Z,2.40
2022-10-09T05:28:25.806Z,2.47
2022-10-09T05:30:54.116Z,2.75
2022-10-09T05:33:22.439Z,2.80
2022-10-09T05:35:56.277Z,2.70
2022-10-09T05:38:25.212Z,2.78
2022-10-09T05:40:54.569Z,2.92
2022-10-09T05:43:24.226Z,3.10
2022-10-09T05:45:52.147Z,2.72
2022-10-09T05:48:20.564Z,3.03
2022-10-09T05:50:48.644Z,3.17
2022-10-09T05:53:17.743Z,2.80
2022-10-09T05:55:45.450Z,2.80
2022-10-09T05:58:13.341Z,2.63
2022-10-09T06:00:41.473Z,3.10
2022-10-09T06:03:09.254Z,3.20
2022-10-09T06:05:37.014Z,2.85
2022-10-09T06:08:04.799Z,3.10
2022-10-09T06:10:33.884Z,3.45
2022-10-09T06:13:01.789Z,3.38
2022-10-09T06:15:29.563Z,3.10
2022-10-09T06:17:57.634Z,3.20
2022-10-09T06:20:25.675Z,2.75
2022-10-09T06:22:53.449Z,2.92
2022-10-09T06:25:21.281Z,3.33
2022-10-09T06:27:50.576Z,3.08
2022-10-09T06:30:18.563Z,3.40
2022-10-09T06:32:46.542Z,2.78
2022-10-09T06:35:14.764Z,3.13
2022-10-09T06:37:42.799Z,3.22
2022-10-09T06:40:11.655Z,3.55
2022-10-09T06:42:39.607Z,3.63
2022-10-09T06:45:10.579Z,3.70
2022-10-09T06:47:38.318Z,3.20
2022-10-09T06:50:07.161Z,3.92
2022-10-09T06:52:34.985Z,3.00
2022-10-09T06:55:02.875Z,3.78
2022-10-09T06:57:31.071Z,3.80
2022-10-09T06:59:58.851Z,3.05
2022-10-09T07:02:28.466Z,3.58
2022-10-09T07:04:56.658Z,3.20
2022-10-09T07:07:24.455Z,4.55
2022-10-09T07:09:54.380Z,3.53
2022-10-09T07:12:22.346Z,3.80
2022-10-09T07:14:50.133Z,4.57
2022-10-09T07:17:17.968Z,4.50
2022-10-09T07:19:47.170Z,3.63
2022-10-09T07:22:14.938Z,4.20
2022-10-09T07:24:43.360Z,4.32
2022-10-09T07:27:11.687Z,4.82
2022-10-09T07:29:39.789Z,4.28
2022-10-09T07:32:10.520Z,4.15
2022-10-09T07:34:38.816Z,5.90
2022-10-09T07:37:09.313Z,4.65
2022-10-09T07:39:38.866Z,3.78
2022-10-09T07:42:12.000Z,4.40
2022-10-09T07:44:39.833Z,4.40
2022-10-09T07:47:07.598Z,3.47
2022-10-09T07:49:35.510Z,4.32
2022-10-09T07:52:03.256Z,4.00
2022-10-09T07:54:33.372Z,3.55
2022-10-09T07:57:01.282Z,3.53
2022-10-09T07:59:30.249Z,4.20
2022-10-09T08:02:00.926Z,4.47
2022-10-09T08:04:29.342Z,3.85
2022-10-09T08:06:58.285Z,5.00
2022-10-09T08:09:26.049Z,3.22
2022-10-09T08:11:55.426Z,4.20
2022-10-09T08:14:23.194Z,3.15
2022-10-09T08:16:51.002Z,3.00
2022-10-09T08:19:18.970Z,3.35
2022-10-09T08:21:46.732Z,4.05
2022-10-09T08:24:14.603Z,3.97
2022-10-09T08:26:44.216Z,2.92
2022-10-09T08:29:15.950Z,3.22
2022-10-09T08:31:43.904Z,2.83
2022-10-09T08:34:12.038Z,3.00
2022-10-09T08:36:50.276Z,3.22
2022-10-09T08:39:18.159Z,3.38
2022-10-09T08:41:48.502Z,3.63
2022-10-09T08:44:20.772Z,3.20
2022-10-09T08:47:01.285Z,3.42
2022-10-09T08:49:43.495Z,3.55
2022-10-09T08:52:20.435Z,3.10
2022-10-09T08:54:48.549Z,3.13
2022-10-09T08:57:17.624Z,3.75
2022-10-09T08:59:46.769Z,2.83
2022-10-09T09:02:32.798Z,3.15
2022-10-09T09:05:23.345Z,2.80
2022-10-09T09:07:56.880Z,2.13
2022-10-09T09:10:37.674Z,3.15
2022-10-09T09:13:17.772Z,3.45
2022-10-09T09:15:51.578Z,2.75
2022-10-09T09:18:30.300Z,2.60
2022-10-09T09:21:03.946Z,2.40
2022-10-09T09:23:39.253Z,3.40
2022-10-09T09:26:14.332Z,3.70
2022-10-09T09:28:43.301Z,2.83
2022-10-09T09:31:17.663Z,2.45
2022-10-09T09:33:52.564Z,2.30
2022-10-09T09:36:24.908Z,3.35
2022-10-09T09:41:43.618Z,2.45
2022-10-09T09:44:14.524Z,2.58
2022-10-09T09:46:46.604Z,2.55
2022-10-09T09:49:19.322Z,2.42
2022-10-09T09:51:49.359Z,2.78
2022-10-09T09:54:19.344Z,2.65
2022-10-09T09:57:11.045Z,3.10
2022-10-09T09:59:39.289Z,2.30
2022-10-09T10:02:14.727Z,2.58
2022-10-09T10:04:57.165Z,2.67
2022-10-09T10:07:33.410Z,2.63
2022-10-09T10:10:07.137Z,2.45
2022-10-09T10:12:40.552Z,2.40
2022-10-09T10:15:18.882Z,2.30
2022-10-09T10:17:49.444Z,2.10
2022-10-09T10:20:21.387Z,1.60
2022-10-09T10:23:03.511Z,1.88
2022-10-09T10:25:34.922Z,2.10
2022-10-09T10:28:08.149Z,2.42
2022-10-09T10:30:38.572Z,2.33
2022-10-09T10:33:17.892Z,1.50
2022-10-09T10:35:46.697Z,2.13
2022-10-09T10:38:19.625Z,2.40
2022-10-09T10:40:53.408Z,1.95
2022-10-09T10:43:32.209Z,2.70
2022-10-09T10:46:05.434Z,1.90
2022-10-09T10:48:42.934Z,2.67
2022-10-09T10:51:42.799Z,2.80
2022-10-09T10:54:29.465Z,2.65
2022-10-09T10:57:09.410Z,2.17
2022-10-09T10:59:40.873Z,2.08
2022-10-09T11:02:42.243Z,1.77
2022-10-09T11:05:22.835Z,2.05
2022-10-09T11:08:00.249Z,2.42
2022-10-09T11:10:35.245Z,2.03
2022-10-09T11:13:10.873Z,1.77
2022-10-09T11:15:50.973Z,2.20
2022-10-09T11:18:48.005Z,1.40
2022-10-09T11:21:28.098Z,1.75
2022-10-09T11:24:10.610Z,1.92
2022-10-09T11:26:47.843Z,1.80
2022-10-09T11:29:20.931Z,2.00
2022-10-09T11:31:54.502Z,2.30
2022-10-09T11:34:30.819Z,2.35
2022-10-09T11:37:01.395Z,2.17
2022-10-09T11:39:31.905Z,2.20
2022-10-09T11:42:00.858Z,2.60
2022-10-09T11:44:45.537Z,2.55
2022-10-09T11:47:20.806Z,1.90
2022-10-09T11:50:01.127Z,2.30
2022-10-09T11:52:40.496Z,2.67
2022-10-09T11:55:20.585Z,1.83
2022-10-09T11:57:49.190Z,2.35
2022-10-09T12:00:28.769Z,2.05
2022-10-09T12:03:00.606Z,2.10
2022-10-09T12:05:39.682Z,2.33
2022-10-09T12:08:15.397Z,1.90
2022-10-09T12:10:51.943Z,2.05
2022-10-09T12:13:41.824Z,1.73
2022-10-09T12:16:12.057Z,2.75
2022-10-09T12:18:45.219Z,2.50
2022-10-09T12:21:24.552Z,2.10
2022-10-09T12:23:54.482Z,2.13
2022-10-09T12:26:24.730Z,1.80
2022-10-09T12:28:56.057Z,1.90
2022-10-09T12:31:29.803Z,1.80
2022-10-09T12:34:03.247Z,1.70
2022-10-09T12:36:32.441Z,1.30
2022-10-09T12:39:14.418Z,1.27
2022-10-09T12:41:45.801Z,1.63
2022-10-09T12:44:25.688Z,1.35
2022-10-09T12:46:53.945Z,1.50
2022-10-09T12:49:25.643Z,1.20
2022-10-09T12:51:56.459Z,2.28
2022-10-09T12:54:27.088Z,1.33
2022-10-09T12:56:57.218Z,1.27
2022-10-09T12:59:27.205Z,1.52
2022-10-09T13:01:59.894Z,1.40
2022-10-09T13:04:31.005Z,1.50
2022-10-09T13:06:59.924Z,1.48
2022-10-09T13:09:37.160Z,0.98
2022-10-09T13:12:08.943Z,1.20
2022-10-09T13:14:44.432Z,1.10
2022-10-09T13:17:24.874Z,1.50
2022-10-09T13:19:54.413Z,1.45
2022-10-09T13:22:23.857Z,0.93
2022-10-09T13:24:55.273Z,1.20
2022-10-09T13:27:26.776Z,1.10
2022-10-09T13:29:54.813Z,0.93
2022-10-09T13:32:24.254Z,1.10
2022-10-09T13:34:54.962Z,1.10
2022-10-09T13:37:24.965Z,1.10
2022-10-09T13:39:56.121Z,1.10
2022-10-09T13:42:25.897Z,1.55
2022-10-09T13:44:54.329Z,1.10
2022-10-09T13:47:24.606Z,1.10
2022-10-09T13:49:52.613Z,1.35
2022-10-09T13:52:20.456Z,0.95
2022-10-09T13:54:48.237Z,1.27
2022-10-09T13:57:17.430Z,1.30
2022-10-09T13:59:45.200Z,1.00
2022-10-09T14:02:13.335Z,1.17
2022-10-09T14:04:41.745Z,1.58
2022-10-09T14:07:09.951Z,1.27
2022-10-09T14:09:37.847Z,1.20
2022-10-09T14:12:05.817Z,1.08
2022-10-09T14:14:36.312Z,1.27
2022-10-09T14:17:04.149Z,1.25
2022-10-09T14:19:32.048Z,1.10
2022-10-09T14:22:00.091Z,1.05
2022-10-09T14:24:27.906Z,1.45
2022-10-09T14:26:55.769Z,1.73
2022-10-09T14:29:23.550Z,1.00
2022-10-09T14:31:52.802Z,1.40
2022-10-09T14:34:20.656Z,1.42
2022-10-09T14:36:48.827Z,1.20
2022-10-09T14:39:17.070Z,1.05
2022-10-09T14:41:45.742Z,1.13
2022-10-09T14:44:13.958Z,1.15
2022-10-09T14:46:41.831Z,1.15
2022-10-09T14:49:12.137Z,1.00
2022-10-09T14:51:41.712Z,1.08
2022-10-09T14:54:10.681Z,0.80
2022-10-09T14:56:38.578Z,0.98
2022-10-09T14:59:07.017Z,0.73
2022-10-09T15:01:35.692Z,1.20
2022-10-09T15:04:04.868Z,1.35
2022-10-09T15:06:34.582Z,1.30
2022-10-09T15:09:05.582Z,1.30
2022-10-09T15:11:34.329Z,1.52
2022-10-09T15:14:02.687Z,1.20
2022-10-09T15:16:30.743Z,1.60
2022-10-09T15:18:59.077Z,1.20
2022-10-09T15:21:28.540Z,1.40
2022-10-09T15:23:59.209Z,1.60
2022-10-09T15:26:28.791Z,1.15
2022-10-09T15:28:57.714Z,0.98
2022-10-09T15:31:27.762Z,1.13
2022-10-09T15:33:57.370Z,1.17
2022-10-09T15:36:26.456Z,1.13
2022-10-09T15:38:55.573Z,1.00
2022-10-09T15:41:28.000Z,1.55
2022-10-09T15:43:57.819Z,1.25
2022-10-09T15:46:26.469Z,1.15
2022-10-09T15:48:54.893Z,1.10
2022-10-09T15:51:23.756Z,1.08
2022-10-09T15:53:52.944Z,1.17
2022-10-09T15:56:22.838Z,1.45
2022-10-09T15:58:52.803Z,1.40
2022-10-09T16:01:22.138Z,0.93
2022-10-09T16:03:50.489Z,1.17
2022-10-09T16:06:20.165Z,1.45
2022-10-09T16:08:48.336Z,1.45
2022-10-09T16:11:21.617Z,1.30
2022-10-09T16:14:08.351Z,1.30
2022-10-09T16:16:36.128Z,1.20
2022-10-09T16:19:05.077Z,1.48
2022-10-09T16:21:33.462Z,1.33
2022-10-09T16:24:01.677Z,1.38
2022-10-09T16:26:30.434Z,1.30
2022-10-09T16:28:58.483Z,0.90
2022-10-09T16:31:30.105Z,0.93
2022-10-09T16:34:00.462Z,1.52
2022-10-09T16:36:29.212Z,1.33
2022-10-09T16:38:57.897Z,1.20
2022-10-09T16:41:26.977Z,1.40
2022-10-09T16:43:56.825Z,1.08
2022-10-09T16:46:36.111Z,2.13
2022-10-09T16:49:11.728Z,1.55
2022-10-09T16:51:39.526Z,1.55
2022-10-09T16:54:08.000Z,2.28
2022-10-09T16:56:37.697Z,1.80
2022-10-09T16:59:08.180Z,1.85
2022-10-09T17:01:43.568Z,2.45
2022-10-09T17:04:12.855Z,1.98
2022-10-09T17:06:41.792Z,2.15
2022-10-09T17:09:13.905Z,2.03
2022-10-09T17:11:42.752Z,1.40
2022-10-09T17:14:10.977Z,1.80
2022-10-09T17:16:45.703Z,1.77
2022-10-09T17:19:15.700Z,2.15
2022-10-09T17:21:51.475Z,1.63
2022-10-09T17:24:19.545Z,2.03
2022-10-09T17:26:47.404Z,1.90
2022-10-09T17:29:15.306Z,2.08
2022-10-09T17:31:46.978Z,2.05
2022-10-09T17:34:15.458Z,2.08
2022-10-09T17:36:45.232Z,2.17
2022-10-09T17:39:15.538Z,2.45
2022-10-09T17:41:45.679Z,2.50
2022-10-09T17:44:15.373Z,2.13
2022-10-09T17:46:44.983Z,2.15
2022-10-09T17:49:13.291Z,2.92
2022-10-09T17:51:42.090Z,2.30
2022-10-09T17:54:12.915Z,2.30
2022-10-09T17:56:41.535Z,2.60
2022-10-09T17:59:10.278Z,2.25
2022-10-09T18:01:39.067Z,2.40
2022-10-09T18:04:08.588Z,2.13
2022-10-09T18:06:36.481Z,3.33
2022-10-09T18:09:04.824Z,2.63
2022-10-09T18:11:32.760Z,2.63
2022-10-09T18:14:01.482Z,2.33
2022-10-09T18:16:35.827Z,2.33
2022-10-09T18:19:06.307Z,2.40
2022-10-09T18:21:36.105Z,2.83
2022-10-09T18:24:04.317Z,2.70
2022-10-09T18:26:32.385Z,2.67
2022-10-09T18:29:00.533Z,2.90
2022-10-09T18:31:28.543Z,2.67
2022-10-09T18:33:57.630Z,2.63
2022-10-09T18:36:31.234Z,3.03
2022-10-09T18:39:03.493Z,2.30
2022-10-09T18:41:31.433Z,3.95
2022-10-09T18:44:01.069Z,3.10
2022-10-09T18:46:34.873Z,2.90
2022-10-09T18:49:03.344Z,3.08
2022-10-09T18:51:32.608Z,2.45
2022-10-09T18:54:08.595Z,3.30
2022-10-09T18:56:37.486Z,3.17
2022-10-09T18:59:07.860Z,3.60
2022-10-09T19:01:35.842Z,3.53
2022-10-09T19:04:04.335Z,3.80
2022-10-09T19:06:32.406Z,4.13
2022-10-09T19:09:01.263Z,3.28
2022-10-09T19:11:32.177Z,3.78
2022-10-09T19:14:03.462Z,4.28
2022-10-09T19:16:35.967Z,4.10
2022-10-09T19:19:04.661Z,3.90
2022-10-09T19:21:32.450Z,3.83
2022-10-09T19:24:03.410Z,3.65
2022-10-09T19:26:33.343Z,3.95
2022-10-09T19:29:03.900Z,4.38
2022-10-09T19:31:32.932Z,4.15
2022-10-09T19:34:01.654Z,4.03
2022-10-09T19:36:34.293Z,4.60
2022-10-09T19:39:02.627Z,4.45
2022-10-09T19:41:31.979Z,3.83
2022-10-09T19:44:01.421Z,3.90
2022-10-09T19:46:29.490Z,3.75
2022-10-09T19:49:00.859Z,3.60
2022-10-09T19:51:28.626Z,4.13
2022-10-09T19:53:56.444Z,4.40
2022-10-09T19:56:26.153Z,4.60
2022-10-09T19:58:56.025Z,4.03
2022-10-09T20:01:25.505Z,3.95
2022-10-09T20:03:57.991Z,4.28
2022-10-09T20:06:26.470Z,4.28
2022-10-09T20:08:55.679Z,3.53
2022-10-09T20:11:24.186Z,3.60
2022-10-09T20:13:55.728Z,4.28
2022-10-09T20:16:25.751Z,4.72
2022-10-09T20:18:55.334Z,4.68
2022-10-09T20:21:23.555Z,4.30
2022-10-09T20:23:51.579Z,4.03
2022-10-09T20:26:22.328Z,3.92
2022-10-09T20:28:51.050Z,4.28
2022-10-09T20:31:20.974Z,4.00
2022-10-09T20:33:51.145Z,3.92
2022-10-09T20:36:22.318Z,4.38
2022-10-09T20:38:52.193Z,4.25
2022-10-09T20:41:20.106Z,3.80
2022-10-09T20:43:51.461Z,3.97
2022-10-09T20:46:21.125Z,3.60
2022-10-09T20:48:51.694Z,3.53
2022-10-09T20:51:20.870Z,3.88
2022-10-09T20:53:52.628Z,3.83
2022-10-09T20:56:20.529Z,4.00
2022-10-09T20:58:48.378Z,3.90
2022-10-09T21:01:17.461Z,3.55
2022-10-09T21:03:45.674Z,3.75
2022-10-09T21:06:17.337Z,3.50
2022-10-09T21:08:45.714Z,3.83
2022-10-09T21:11:16.694Z,3.45
2022-10-09T21:13:45.448Z,3.38
2022-10-09T21:16:17.141Z,3.55
2022-10-09T21:18:45.193Z,3.28
2022-10-09T21:21:16.938Z,3.53
2022-10-09T21:23:45.888Z,4.00
2022-10-09T21:26:15.389Z,3.65
2022-10-09T21:28:43.902Z,3.47
2022-10-09T21:31:13.673Z,3.38
2022-10-09T21:33:41.749Z,3.20
2022-10-09T21:36:13.648Z,3.42
2022-10-09T21:38:43.179Z,2.85
2022-10-09T21:41:11.657Z,3.40
2022-10-09T21:43:39.508Z,3.35
2022-10-09T21:46:07.426Z,2.60
2022-10-09T21:48:35.190Z,3.15
2022-10-09T21:51:02.969Z,3.10
2022-10-09T21:53:30.976Z,3.22
2022-10-09T21:56:03.022Z,3.45
2022-10-09T21:58:30.877Z,3.35
2022-10-09T22:01:00.517Z,3.10
2022-10-09T22:03:31.305Z,2.78
2022-10-09T22:05:59.288Z,3.38
2022-10-09T22:08:27.558Z,3.15
2022-10-09T22:10:55.415Z,2.90
2022-10-09T22:13:24.516Z,3.15
2022-10-09T22:15:52.404Z,3.83
2022-10-09T22:18:20.764Z,3.30
2022-10-09T22:20:51.450Z,2.88
2022-10-09T22:23:20.698Z,2.80
2022-10-09T22:25:57.223Z,2.90
2022-10-09T22:28:26.531Z,3.03
2022-10-09T22:31:03.053Z,3.20
2022-10-09T22:33:31.184Z,3.13
2022-10-09T22:36:10.580Z,3.33
2022-10-09T22:38:38.928Z,3.25
2022-10-09T22:41:09.402Z,3.33
2022-10-09T22:43:39.729Z,3.17
2022-10-09T22:46:09.813Z,3.03
2022-10-09T22:48:38.171Z,2.70
2022-10-09T22:51:07.881Z,3.28
2022-10-09T22:53:36.699Z,2.53
2022-10-09T22:56:05.511Z,3.63
2022-10-09T22:58:33.938Z,3.00
2022-10-09T23:01:06.216Z,3.00
2022-10-09T23:03:34.198Z,3.65
2022-10-09T23:06:10.030Z,3.67
2022-10-09T23:08:39.453Z,2.67
2022-10-09T23:11:07.501Z,2.85
2022-10-09T23:13:35.882Z,3.45
2022-10-09T23:16:06.678Z,3.28
2022-10-09T23:19:08.797Z,3.03
2022-10-09T23:21:38.813Z,2.70
2022-10-09T23:24:07.295Z,3.17
2022-10-09T23:26:36.111Z,3.33
2022-10-09T23:29:06.073Z,3.33
2022-10-09T23:31:36.787Z,3.35
2022-10-09T23:34:05.562Z,3.17
2022-10-09T23:36:33.636Z,2.85
2022-10-09T23:39:02.742Z,2.90
2022-10-09T23:41:31.214Z,3.42
2022-10-09T23:43:59.044Z,3.67
2022-10-09T23:46:28.990Z,3.03
2022-10-09T23:48:58.485Z,3.33
2022-10-09T23:51:27.696Z,3.47
2022-10-09T23:53:55.965Z,2.80
2022-10-09T23:56:25.845Z,3.10
2022-10-09T23:58:54.184Z,4.43
